KLBT

Lumberton Regional Airport

Lumberton, North Carolina, USA
METAR KLBT 201954Z AUTO 26006KT 10SM -RA SCT028 BKN090 OVC110 23/19 A2980 RMK AO2 RAE17B37 SLP090 P0000 T02280189
Observed Flight Rules
Oct-20 @ 19:54 UTC (24 minutes ago) Visual Flight Rules
Wind Visibility Clouds Conditions
260° at 6 knots 10 miles
  • Scattered at 2,800' AGL
  • Broken at 9,000' AGL
  • Overcast at 11,000' AGL
  • Light Rain
Temperatures Readings Precipitation
Current 23°C / 73°F
Dewpoint 19°C / 66°F
Humidity 78%
Altimeter 29.8" Hg
Pressure 1009 hPa
Elevation 37
Current Rain 0.005
METAR KLBT 201954Z AUTO 26006KT 10SM -RA SCT028 BKN090 OVC110 23/19 A2980 RMK AO2 RAE17B37 SLP090 P0000 T02280189
Observed Flight Rules
Oct-20 @ 19:54 UTC
(24 minutes ago)
VFR
Wind Visibility
260° at 6 knots 10 miles
Clouds
  • Scattered at 2,800' AGL
  • Broken at 9,000' AGL
  • Overcast at 11,000' AGL
Conditions
  • Light Rain
Temperature Dewpoint
23°C / 73°F 19°C / 66°F
Humidity Altimeter Pressure
78% 29.8" Hg 1009 hPa
Current Rain
0.005